createdAt,value
2022-11-13T00:09:17.404Z,31.6
2022-11-13T00:25:00.258Z,30.7
2022-11-13T00:40:42.969Z,29.3
2022-11-13T00:56:25.305Z,29.5
2022-11-13T01:12:08.173Z,30
2022-11-13T01:27:50.528Z,26.3
2022-11-13T01:43:33.046Z,25.7
2022-11-13T01:59:15.586Z,24.4
2022-11-13T02:14:58.242Z,21.9
2022-11-13T02:30:40.699Z,20.5
2022-11-13T02:46:23.013Z,20.6
2022-11-13T03:02:05.143Z,16.5
2022-11-13T03:17:47.943Z,16.2
2022-11-13T03:33:30.638Z,15.8
2022-11-13T03:49:13.679Z,16.1
2022-11-13T04:04:56.722Z,17.5
2022-11-13T04:20:39.783Z,16
2022-11-13T04:36:22.666Z,16.7
2022-11-13T04:52:05.637Z,17.1
2022-11-13T05:07:48.301Z,17.5
2022-11-13T05:23:31.188Z,16.9
2022-11-13T05:39:14.103Z,18.79
2022-11-13T05:54:56.571Z,18.2
2022-11-13T06:10:39.410Z,18.9
2022-11-13T06:26:21.480Z,21.1
2022-11-13T06:42:03.904Z,29.1
2022-11-13T06:57:46.128Z,24.3
2022-11-13T07:13:28.760Z,26.1
2022-11-13T07:29:10.947Z,24.5
2022-11-13T07:44:53.765Z,26.1
2022-11-13T08:00:36.611Z,24.9
2022-11-13T08:16:19.665Z,24
2022-11-13T08:32:02.204Z,21.6
2022-11-13T08:47:44.297Z,20.8
2022-11-13T09:03:27.171Z,17.79
2022-11-13T09:19:10.202Z,17
2022-11-13T09:34:53.042Z,14.5
2022-11-13T09:50:35.344Z,14.8
2022-11-13T10:06:17.620Z,15.5
2022-11-13T10:21:59.802Z,16.1
2022-11-13T10:37:42.048Z,13.3
2022-11-13T10:53:24.729Z,14.9
2022-11-13T11:09:06.690Z,13.6
2022-11-13T11:24:49.097Z,13.8
2022-11-13T11:40:31.778Z,15.4
2022-11-13T11:56:13.814Z,16.7
2022-11-13T12:11:56.743Z,16.9
2022-11-13T12:27:39.343Z,18.5
2022-11-13T12:43:21.944Z,14.8
2022-11-13T12:59:04.552Z,12
2022-11-13T13:14:46.775Z,11.4
2022-11-13T13:30:28.817Z,15.3
2022-11-13T13:46:11.154Z,14.8
2022-11-13T14:01:53.690Z,17.29
2022-11-13T14:17:36.264Z,16.2
2022-11-13T14:33:18.433Z,15.9
2022-11-13T14:49:01.337Z,17.1
2022-11-13T15:04:43.909Z,17.79
2022-11-13T15:20:26.424Z,18.7
2022-11-13T15:21:13.699Z,19.6
2022-11-13T15:36:55.975Z,22
2022-11-13T15:52:38.438Z,25.2
2022-11-13T16:08:20.720Z,28.4
2022-11-13T16:24:03.747Z,25.5
2022-11-13T16:39:46.045Z,29.9
2022-11-13T16:55:28.643Z,30.8
2022-11-13T17:11:11.057Z,29.8
2022-11-13T17:26:53.447Z,38
2022-11-13T17:42:36.207Z,39.5
2022-11-13T17:58:18.944Z,36.4
2022-11-13T18:14:01.159Z,33.7
2022-11-13T18:29:43.060Z,37.09
2022-11-13T18:45:26.217Z,36.4
2022-11-13T19:01:08.346Z,32.3
2022-11-13T19:16:51.240Z,31.2
2022-11-13T19:32:33.944Z,33.3
2022-11-13T19:48:16.937Z,36
2022-11-13T20:03:59.967Z,40.9
2022-11-13T20:19:42.953Z,41.5
2022-11-13T20:35:25.324Z,46
2022-11-13T20:51:07.568Z,51.3
2022-11-13T21:06:50.825Z,59.1
2022-11-13T21:22:33.798Z,60.2
2022-11-13T21:38:16.852Z,75.5
2022-11-13T21:53:59.912Z,81.9
2022-11-13T22:09:41.905Z,84.6
2022-11-13T22:25:24.652Z,91.8
2022-11-13T22:41:06.715Z,87.5
2022-11-13T22:56:49.835Z,91.2
2022-11-13T23:12:32.494Z,91.2
2022-11-13T23:28:15.533Z,92.5
2022-11-13T23:43:57.980Z,93.2
2022-11-13T23:59:40.449Z,103
